Ohio University (UNI)

 

Airport Diagram
No Airport Diagram Available
Current Weather/Forecast (VFR Conditions)
METAR KUNI 270235Z AUTO 36003KT 10SM SCT024 SCT031 OVC036 10/08 A3022 RMK AO2 T01000075
TAF

Airport Information

All Charts
General
Chart Name View
TAKEOFF MINIMUMS
ALTERNATE MINIMUMS
TAKEOFF MINIMUMS
ALTERNATE MINIMUMS

Approaches
Chart Name Download
ILS OR LOC RWY 25
RNAV (GPS) RWY 07
RNAV (GPS) RWY 25
NDB RWY 25
ILS OR LOC RWY 25
RNAV (GPS) RWY 07
RNAV (GPS) RWY 25
NDB RWY 25


Airport Statistics
Departures Arrivals Local
All Collected Stats since June 2016: 10 13 0
2020 Stats: 5 7 0
October Stats: 1 2 0

Inbound Traffic (Arrivals) - 0

No inbound traffic.


Outbound Traffic (Departures) - 0

No outbound traffic.


Local Traffic (Pattern) - 0

No local traffic.